createdAt,value
2023-05-01T00:00:16.763Z,4.45
2023-05-01T00:02:48.949Z,4.32
2023-05-01T00:05:18.979Z,4.45
2023-05-01T00:07:47.346Z,4.32
2023-05-01T00:10:15.799Z,4.03
2023-05-01T00:12:44.190Z,4.30
2023-05-01T00:15:12.844Z,4.28
2023-05-01T00:17:41.488Z,4.07
2023-05-01T00:20:11.038Z,4.25
2023-05-01T00:22:41.109Z,4.05
2023-05-01T00:25:10.655Z,4.53
2023-05-01T00:27:39.029Z,4.28
2023-05-01T00:30:08.855Z,4.05
2023-05-01T00:32:37.237Z,4.43
2023-05-01T00:35:06.069Z,4.28
2023-05-01T00:37:35.146Z,4.30
2023-05-01T00:40:05.321Z,4.40
2023-05-01T00:42:37.321Z,4.88
2023-05-01T00:45:06.609Z,4.28
2023-05-01T00:47:37.126Z,4.63
2023-05-01T00:50:06.337Z,4.78
2023-05-01T00:52:34.957Z,4.50
2023-05-01T00:55:06.042Z,4.68
2023-05-01T00:57:35.096Z,4.50
2023-05-01T01:00:04.184Z,4.35
2023-05-01T01:02:33.498Z,5.32
2023-05-01T01:05:01.909Z,4.45
2023-05-01T01:07:38.145Z,4.40
2023-05-01T01:10:20.585Z,4.43
2023-05-01T01:12:56.075Z,4.60
2023-05-01T01:15:34.949Z,4.75
2023-05-01T01:18:11.171Z,4.57
2023-05-01T01:20:45.300Z,5.03
2023-05-01T01:23:37.737Z,4.45
2023-05-01T01:26:33.924Z,4.70
2023-05-01T01:29:30.170Z,5.38
2023-05-01T01:32:05.841Z,5.05
2023-05-01T01:34:41.381Z,4.88
2023-05-01T01:37:16.085Z,4.72
2023-05-01T01:39:50.906Z,4.63
2023-05-01T01:42:23.392Z,5.22
2023-05-01T01:44:55.695Z,4.88
2023-05-01T01:47:29.462Z,5.00
2023-05-01T01:50:02.419Z,4.70
2023-05-01T01:52:33.081Z,4.57
2023-05-01T01:55:06.475Z,5.00
2023-05-01T01:57:37.911Z,4.97
2023-05-01T02:00:10.030Z,4.88
2023-05-01T02:02:43.872Z,4.85
2023-05-01T02:05:16.609Z,4.40
2023-05-01T02:07:49.743Z,5.22
2023-05-01T02:10:20.176Z,4.93
2023-05-01T02:12:52.159Z,4.93
2023-05-01T02:15:22.277Z,5.25
2023-05-01T02:17:52.360Z,4.80
2023-05-01T02:20:23.254Z,4.90
2023-05-01T02:22:53.774Z,5.10
2023-05-01T02:25:22.536Z,4.63
2023-05-01T02:27:57.650Z,4.85
2023-05-01T02:30:26.157Z,4.63
2023-05-01T02:32:54.786Z,4.80
2023-05-01T02:35:24.850Z,4.75
2023-05-01T02:37:53.538Z,4.88
2023-05-01T02:40:22.124Z,4.70
2023-05-01T02:42:52.834Z,5.40
2023-05-01T02:45:25.072Z,4.95
2023-05-01T02:47:59.824Z,5.25
2023-05-01T02:50:30.768Z,4.90
2023-05-01T02:53:02.411Z,5.07
2023-05-01T02:55:46.402Z,5.35
2023-05-01T02:58:18.583Z,5.10
2023-05-01T03:00:47.704Z,5.32
2023-05-01T03:03:16.772Z,4.90
2023-05-01T03:05:47.764Z,5.70
2023-05-01T03:08:16.425Z,8.85
2023-05-01T03:10:44.756Z,48.55
2023-05-01T03:13:13.650Z,123.88
2023-05-01T03:15:42.422Z,145.50
2023-05-01T03:18:10.847Z,113.72
2023-05-01T03:20:39.279Z,101.40
2023-05-01T03:23:10.123Z,61.33
2023-05-01T03:25:38.814Z,45.92
2023-05-01T03:28:07.485Z,28.85
2023-05-01T03:30:36.361Z,45.35
2023-05-01T03:33:05.008Z,65.95
2023-05-01T03:35:35.118Z,61.45
2023-05-01T03:38:04.882Z,64.45
2023-05-01T03:40:53.511Z,105.80
2023-05-01T03:43:40.165Z,60.92
2023-05-01T03:46:16.364Z,39.25
2023-05-01T03:48:45.593Z,22.42
2023-05-01T03:51:17.198Z,14.27
2023-05-01T03:53:49.317Z,11.15
2023-05-01T03:56:19.263Z,9.18
2023-05-01T03:58:48.399Z,7.35
2023-05-01T04:01:17.005Z,6.95
2023-05-01T04:03:46.975Z,6.57
2023-05-01T04:06:17.367Z,6.43
2023-05-01T04:08:46.450Z,6.63
2023-05-01T04:11:14.966Z,6.05
2023-05-01T04:13:44.811Z,6.03
2023-05-01T04:16:14.346Z,6.43
2023-05-01T04:18:42.903Z,6.18
2023-05-01T04:21:11.436Z,6.05
2023-05-01T04:23:41.414Z,6.40
2023-05-01T04:26:10.321Z,6.50
2023-05-01T04:28:38.810Z,6.15
2023-05-01T04:31:11.051Z,6.00
2023-05-01T04:33:39.710Z,6.20
2023-05-01T04:36:08.652Z,6.07
2023-05-01T04:38:38.265Z,6.07
2023-05-01T04:41:07.168Z,5.88
2023-05-01T04:43:35.891Z,5.90
2023-05-01T04:46:05.368Z,5.72
2023-05-01T04:48:36.049Z,6.00
2023-05-01T04:51:04.799Z,5.63
2023-05-01T04:53:36.222Z,5.53
2023-05-01T04:56:07.225Z,6.00
2023-05-01T04:58:35.785Z,5.65
2023-05-01T05:01:12.724Z,6.80
2023-05-01T05:03:42.948Z,6.30
2023-05-01T05:06:13.825Z,5.85
2023-05-01T05:08:42.683Z,5.85
2023-05-01T05:11:12.246Z,5.57
2023-05-01T05:13:46.830Z,5.97
2023-05-01T05:16:15.549Z,5.88
2023-05-01T05:18:45.703Z,5.97
2023-05-01T05:21:14.449Z,6.00
2023-05-01T05:23:49.242Z,5.57
2023-05-01T05:26:18.214Z,5.93
2023-05-01T05:28:46.814Z,5.22
2023-05-01T05:31:15.357Z,5.25
2023-05-01T05:33:45.390Z,5.95
2023-05-01T05:36:16.236Z,5.05
2023-05-01T05:38:45.936Z,5.68
2023-05-01T05:41:18.186Z,5.63
2023-05-01T05:43:47.487Z,5.93
2023-05-01T05:46:15.967Z,5.78
2023-05-01T05:48:46.339Z,5.97
2023-05-01T05:51:15.452Z,5.80
2023-05-01T05:53:43.926Z,4.60
2023-05-01T05:56:13.757Z,5.45
2023-05-01T05:58:42.187Z,5.47
2023-05-01T06:01:11.827Z,5.60
2023-05-01T06:03:41.391Z,6.22
2023-05-01T06:06:11.906Z,5.63
2023-05-01T06:08:40.666Z,5.97
2023-05-01T06:11:12.674Z,5.45
2023-05-01T06:13:41.234Z,5.40
2023-05-01T06:16:10.008Z,5.30
2023-05-01T06:18:38.492Z,5.15
2023-05-01T06:21:07.588Z,4.80
2023-05-01T06:23:38.292Z,5.15
2023-05-01T06:26:29.256Z,5.47
2023-05-01T06:28:57.662Z,5.05
2023-05-01T06:31:27.538Z,5.20
2023-05-01T06:33:57.536Z,5.43
2023-05-01T06:36:33.644Z,5.57
2023-05-01T06:39:03.559Z,5.38
2023-05-01T06:41:33.480Z,5.38
2023-05-01T06:44:01.932Z,4.90
2023-05-01T06:46:30.337Z,5.57
2023-05-01T06:48:59.025Z,5.60
2023-05-01T06:51:27.774Z,5.35
2023-05-01T06:53:56.519Z,5.30
2023-05-01T06:56:26.301Z,5.65
2023-05-01T06:58:54.740Z,5.07
2023-05-01T07:01:23.278Z,5.22
2023-05-01T07:03:51.961Z,5.88
2023-05-01T07:06:20.567Z,5.38
2023-05-01T07:08:49.199Z,5.35
2023-05-01T07:11:17.552Z,4.85
2023-05-01T07:13:47.471Z,5.20
2023-05-01T07:16:16.024Z,5.07
2023-05-01T07:18:44.380Z,4.97
2023-05-01T07:21:13.139Z,5.43
2023-05-01T07:23:41.665Z,5.45
2023-05-01T07:26:10.123Z,5.13
2023-05-01T07:28:38.981Z,5.35
2023-05-01T07:31:10.266Z,5.30
2023-05-01T07:33:38.839Z,5.85
2023-05-01T07:36:07.824Z,6.38
2023-05-01T07:38:36.298Z,6.63
2023-05-01T07:41:04.683Z,7.85
2023-05-01T07:43:33.064Z,8.00
2023-05-01T07:46:02.038Z,8.65
2023-05-01T07:48:33.001Z,13.85
2023-05-01T07:51:03.594Z,16.52
2023-05-01T07:53:32.294Z,55.22
2023-05-01T07:56:08.822Z,33.85
2023-05-01T07:58:37.980Z,20.90
2023-05-01T08:01:07.856Z,18.38
2023-05-01T08:03:38.140Z,17.15
2023-05-01T08:06:07.153Z,14.55
2023-05-01T08:08:35.697Z,12.20
2023-05-01T08:11:04.242Z,9.75
2023-05-01T08:13:32.658Z,8.43
2023-05-01T08:16:03.550Z,7.85
2023-05-01T08:18:32.368Z,7.93
2023-05-01T08:21:02.131Z,5.80
2023-05-01T08:23:30.713Z,5.55
2023-05-01T08:25:59.555Z,5.22
2023-05-01T08:28:28.022Z,5.60
2023-05-01T08:30:56.432Z,5.32
2023-05-01T08:33:24.967Z,5.57
2023-05-01T08:35:53.985Z,5.28
2023-05-01T08:38:24.119Z,5.68
2023-05-01T08:40:54.417Z,5.20
2023-05-01T08:43:24.323Z,5.45
2023-05-01T08:45:56.110Z,5.35
2023-05-01T08:48:27.039Z,5.30
2023-05-01T08:50:58.540Z,5.75
2023-05-01T08:53:33.210Z,5.50
2023-05-01T08:56:02.679Z,5.30
2023-05-01T08:58:32.471Z,5.88
2023-05-01T09:01:02.431Z,5.22
2023-05-01T09:03:33.870Z,5.30
2023-05-01T09:06:04.930Z,5.57
2023-05-01T09:08:35.218Z,5.90
2023-05-01T09:11:04.621Z,5.88
2023-05-01T09:13:33.336Z,5.70
2023-05-01T09:16:01.969Z,6.10
2023-05-01T09:18:31.920Z,6.55
2023-05-01T09:21:00.500Z,6.20
2023-05-01T09:23:28.919Z,6.53
2023-05-01T09:25:59.127Z,6.40
2023-05-01T09:28:44.632Z,6.88
2023-05-01T09:31:23.986Z,7.18
2023-05-01T09:33:56.692Z,6.75
2023-05-01T09:36:26.666Z,7.03
2023-05-01T09:38:55.689Z,7.10
2023-05-01T09:41:26.307Z,6.93
2023-05-01T09:43:57.224Z,7.18
2023-05-01T09:46:27.170Z,7.63
2023-05-01T09:48:57.141Z,8.07
2023-05-01T09:51:28.118Z,7.68
2023-05-01T09:53:57.739Z,7.53
2023-05-01T09:56:28.036Z,7.95
2023-05-01T09:58:58.564Z,8.52
2023-05-01T10:01:40.615Z,8.02
2023-05-01T10:04:09.916Z,9.40
2023-05-01T10:06:38.959Z,8.75
2023-05-01T10:09:11.005Z,8.43
2023-05-01T10:11:52.255Z,9.18
2023-05-01T10:14:21.379Z,8.45
2023-05-01T10:16:50.028Z,9.13
2023-05-01T10:19:19.517Z,8.73
2023-05-01T10:21:48.120Z,8.38
2023-05-01T10:24:18.700Z,9.07
2023-05-01T10:26:52.159Z,8.93
2023-05-01T10:29:24.729Z,9.48
2023-05-01T10:31:53.340Z,8.82
2023-05-01T10:34:26.212Z,9.38
2023-05-01T10:37:00.405Z,9.55
2023-05-01T10:39:32.654Z,10.18
2023-05-01T10:42:11.571Z,9.63
2023-05-01T10:44:40.482Z,9.75
2023-05-01T10:47:48.984Z,10.45
2023-05-01T10:50:17.863Z,10.25
2023-05-01T10:53:17.811Z,10.30
2023-05-01T10:55:47.448Z,9.65
2023-05-01T10:58:56.452Z,10.65
2023-05-01T11:01:35.218Z,10.70
2023-05-01T11:04:05.386Z,9.98
2023-05-01T11:06:33.938Z,10.15
2023-05-01T11:09:04.564Z,11.07
2023-05-01T11:11:50.219Z,10.98
2023-05-01T11:14:20.105Z,10.63
2023-05-01T11:16:49.608Z,10.95
2023-05-01T11:19:47.617Z,10.48
2023-05-01T11:22:16.040Z,10.65
2023-05-01T11:24:44.537Z,10.38
2023-05-01T11:27:18.793Z,11.70
2023-05-01T11:29:50.883Z,10.68
2023-05-01T11:32:27.760Z,11.27
2023-05-01T11:34:56.658Z,10.38
2023-05-01T11:37:41.023Z,11.43
2023-05-01T11:40:21.884Z,10.50
2023-05-01T11:42:50.761Z,10.90
2023-05-01T11:45:21.137Z,11.15
2023-05-01T11:47:50.014Z,11.57
2023-05-01T11:50:18.348Z,10.77
2023-05-01T11:52:49.383Z,11.57
2023-05-01T11:55:17.973Z,11.38
2023-05-01T11:57:50.745Z,10.85
2023-05-01T12:00:29.727Z,12.02
2023-05-01T12:03:03.098Z,11.57
2023-05-01T12:05:34.519Z,11.27
2023-05-01T12:08:11.098Z,11.15
2023-05-01T12:10:40.726Z,11.38
2023-05-01T12:13:10.817Z,11.20
2023-05-01T12:15:44.471Z,11.07
2023-05-01T12:18:14.055Z,11.93
2023-05-01T12:20:44.811Z,11.73
2023-05-01T12:23:14.961Z,12.32
2023-05-01T12:25:45.140Z,11.85
2023-05-01T12:28:15.524Z,12.15
2023-05-01T12:30:46.206Z,11.93
2023-05-01T12:33:15.860Z,11.63
2023-05-01T12:35:46.806Z,10.93
2023-05-01T12:38:18.261Z,11.05
2023-05-01T12:40:54.750Z,11.32
2023-05-01T12:43:24.057Z,11.65
2023-05-01T12:45:55.013Z,11.45
2023-05-01T12:48:23.648Z,12.38
2023-05-01T12:50:54.785Z,11.90
2023-05-01T12:53:24.425Z,10.80
2023-05-01T12:55:54.184Z,10.90
2023-05-01T12:58:22.709Z,11.82
2023-05-01T13:00:53.908Z,10.95
2023-05-01T13:03:25.901Z,11.88
2023-05-01T13:05:56.456Z,10.80
2023-05-01T13:08:29.504Z,10.95
2023-05-01T13:10:59.354Z,11.57
2023-05-01T13:13:29.550Z,11.13
2023-05-01T13:16:12.637Z,10.38
2023-05-01T13:18:45.715Z,11.63
2023-05-01T13:21:16.166Z,10.73
2023-05-01T13:23:54.213Z,11.35
2023-05-01T13:26:28.464Z,11.75
2023-05-01T13:28:58.698Z,10.80
2023-05-01T13:31:28.651Z,11.23
2023-05-01T13:33:59.346Z,11.38
2023-05-01T13:36:32.234Z,11.63
2023-05-01T13:39:00.577Z,10.82
2023-05-01T13:41:30.021Z,11.10
2023-05-01T13:43:58.830Z,11.48
2023-05-01T13:46:29.896Z,11.25
2023-05-01T13:49:04.896Z,11.40
2023-05-01T13:51:36.515Z,11.30
2023-05-01T13:56:33.390Z,10.38
2023-05-01T13:59:01.856Z,11.73
2023-05-01T14:01:31.691Z,11.45
2023-05-01T14:04:00.777Z,11.75
2023-05-01T14:06:29.871Z,11.25
2023-05-01T14:09:00.556Z,10.18
2023-05-01T14:11:28.776Z,10.82
2023-05-01T14:14:01.087Z,10.18
2023-05-01T14:16:31.957Z,11.13
2023-05-01T14:19:00.310Z,11.35
2023-05-01T14:21:29.148Z,11.23
2023-05-01T14:23:58.363Z,11.23
2023-05-01T14:26:26.778Z,11.45
2023-05-01T14:28:55.720Z,10.65
2023-05-01T14:31:29.588Z,10.68
2023-05-01T14:34:00.431Z,10.80
2023-05-01T14:36:33.924Z,11.37
2023-05-01T14:39:04.568Z,9.73
2023-05-01T14:41:38.241Z,10.82
2023-05-01T14:44:07.045Z,11.20
2023-05-01T14:46:38.770Z,10.05
2023-05-01T14:49:08.616Z,10.18
2023-05-01T14:51:37.134Z,10.05
2023-05-01T14:54:05.560Z,10.07
2023-05-01T14:56:33.774Z,9.80
2023-05-01T14:59:02.146Z,10.48
2023-05-01T15:01:30.492Z,10.05
2023-05-01T15:04:00.531Z,9.65
2023-05-01T15:06:32.457Z,9.73
2023-05-01T15:09:00.925Z,9.88
2023-05-01T15:11:30.465Z,8.95
2023-05-01T15:13:58.886Z,9.00
2023-05-01T15:16:27.902Z,8.07
2023-05-01T15:18:56.437Z,8.63
2023-05-01T15:21:24.735Z,8.52
2023-05-01T15:23:54.755Z,8.13
2023-05-01T15:26:23.014Z,8.93
2023-05-01T15:28:51.320Z,8.32
2023-05-01T15:31:19.909Z,8.10
2023-05-01T15:33:48.330Z,7.60
2023-05-01T15:36:16.742Z,7.55
2023-05-01T15:38:44.985Z,8.60
2023-05-01T15:41:16.349Z,7.53
2023-05-01T15:43:46.580Z,7.50
2023-05-01T15:46:16.225Z,7.30
2023-05-01T15:48:45.291Z,7.45
2023-05-01T15:51:13.679Z,7.82
2023-05-01T15:53:42.005Z,7.85
2023-05-01T15:56:10.749Z,7.43
2023-05-01T15:58:40.612Z,7.32
2023-05-01T16:01:09.034Z,7.43
2023-05-01T16:03:47.969Z,7.93
2023-05-01T16:06:17.070Z,7.45
2023-05-01T16:08:45.447Z,8.23
2023-05-01T16:11:16.893Z,8.63
2023-05-01T16:16:21.173Z,7.95
2023-05-01T16:18:55.663Z,7.55
2023-05-01T16:21:24.654Z,7.47
2023-05-01T16:23:55.616Z,7.70
2023-05-01T16:26:28.004Z,7.68
2023-05-01T16:29:01.404Z,7.97
2023-05-01T16:31:34.500Z,8.27
2023-05-01T16:34:03.276Z,8.25
2023-05-01T16:36:32.017Z,7.97
2023-05-01T16:39:00.337Z,8.45
2023-05-01T16:41:28.575Z,8.43
2023-05-01T16:44:00.479Z,9.13
2023-05-01T16:46:31.692Z,9.10
2023-05-01T16:49:00.033Z,8.90
2023-05-01T16:51:28.304Z,9.57
2023-05-01T16:53:56.524Z,9.57
2023-05-01T16:56:24.997Z,9.98
2023-05-01T16:58:53.350Z,9.40
2023-05-01T17:01:23.745Z,9.75
2023-05-01T17:03:52.297Z,9.77
2023-05-01T17:06:20.624Z,10.25
2023-05-01T17:08:48.969Z,10.38
2023-05-01T17:11:18.093Z,9.93
2023-05-01T17:13:46.427Z,9.43
2023-05-01T17:16:14.856Z,10.02
2023-05-01T17:18:44.620Z,9.55
2023-05-01T17:21:12.930Z,10.15
2023-05-01T17:23:41.453Z,9.73
2023-05-01T17:26:09.686Z,10.18
2023-05-01T17:28:38.213Z,9.75
2023-05-01T17:31:06.546Z,10.38
2023-05-01T17:33:34.785Z,9.65
2023-05-01T17:36:04.550Z,9.88
2023-05-01T17:38:32.762Z,9.75
2023-05-01T17:41:01.030Z,9.77
2023-05-01T17:43:29.382Z,9.50
2023-05-01T17:45:57.737Z,9.45
2023-05-01T17:48:25.991Z,9.43
2023-05-01T17:50:55.822Z,78.68
2023-05-01T17:53:25.678Z,97.30
2023-05-01T17:55:54.065Z,132.13
2023-05-01T17:58:22.739Z,126.32
2023-05-01T18:00:51.077Z,111.45
2023-05-01T18:03:19.372Z,159.48
2023-05-01T18:05:47.730Z,184.52
2023-05-01T18:08:16.058Z,180.93
2023-05-01T18:10:45.762Z,104.88
2023-05-01T18:13:14.037Z,89.68
2023-05-01T18:15:43.100Z,82.72
2023-05-01T18:18:11.520Z,117.88
2023-05-01T18:20:40.014Z,177.18
2023-05-01T18:23:08.469Z,152.77
2023-05-01T18:25:37.052Z,164.43
2023-05-01T18:28:07.452Z,130.90
2023-05-01T18:30:35.870Z,148.57
2023-05-01T18:33:04.685Z,104.97
2023-05-01T18:35:33.114Z,148.77
2023-05-01T18:38:01.398Z,262.00
2023-05-01T18:40:30.062Z,204.10
2023-05-01T18:42:58.430Z,205.23
2023-05-01T18:45:28.206Z,180.93
2023-05-01T18:47:56.532Z,111.93
2023-05-01T18:50:24.809Z,95.75
2023-05-01T18:52:53.211Z,76.97
2023-05-01T18:55:21.458Z,56.42
2023-05-01T18:57:49.722Z,49.33
2023-05-01T19:00:20.302Z,39.85
2023-05-01T19:02:51.958Z,28.57
2023-05-01T19:05:22.299Z,22.70
2023-05-01T19:07:50.654Z,19.52
2023-05-01T19:10:19.183Z,15.75
2023-05-01T19:12:47.643Z,12.93
2023-05-01T19:15:16.195Z,10.98
2023-05-01T19:17:44.684Z,8.88
2023-05-01T19:20:14.579Z,7.68
2023-05-01T19:22:42.975Z,10.73
2023-05-01T19:25:11.466Z,9.73
2023-05-01T19:27:39.956Z,8.57
2023-05-01T19:30:09.263Z,7.30
2023-05-01T19:32:37.544Z,5.93
2023-05-01T19:35:06.517Z,6.22
2023-05-01T19:37:36.137Z,9.00
2023-05-01T19:40:04.654Z,8.70
2023-05-01T19:42:33.055Z,6.78
2023-05-01T19:45:01.263Z,6.05
2023-05-01T19:47:29.639Z,4.93
2023-05-01T19:49:58.269Z,4.18
2023-05-01T19:52:27.567Z,3.90
2023-05-01T19:54:57.446Z,3.47
2023-05-01T19:57:26.018Z,3.40
2023-05-01T19:59:55.530Z,4.10
2023-05-01T20:02:23.949Z,2.78
2023-05-01T20:04:52.640Z,3.08
2023-05-01T20:07:20.949Z,3.10
2023-05-01T20:09:49.797Z,2.65
2023-05-01T20:12:19.574Z,2.55
2023-05-01T20:14:47.798Z,2.63
2023-05-01T20:17:16.140Z,1.90
2023-05-01T20:19:45.009Z,2.03
2023-05-01T20:22:13.284Z,2.10
2023-05-01T20:24:41.545Z,1.98
2023-05-01T20:27:10.133Z,2.00
2023-05-01T20:29:41.269Z,1.98
2023-05-01T20:32:09.838Z,1.88
2023-05-01T20:34:38.124Z,2.08
2023-05-01T20:37:06.915Z,1.92
2023-05-01T20:39:35.124Z,2.20
2023-05-01T20:42:03.413Z,1.90
2023-05-01T20:44:31.677Z,2.22
2023-05-01T20:47:01.329Z,1.95
2023-05-01T20:49:30.512Z,1.83
2023-05-01T20:51:59.171Z,2.35
2023-05-01T20:54:32.286Z,2.45
2023-05-01T20:57:02.830Z,2.10
2023-05-01T20:59:31.170Z,2.10
2023-05-01T21:02:04.725Z,2.63
2023-05-01T21:04:32.992Z,2.15
2023-05-01T21:07:01.341Z,2.53
2023-05-01T21:09:29.767Z,2.08
2023-05-01T21:11:58.236Z,2.00
2023-05-01T21:14:28.485Z,2.00
2023-05-01T21:16:56.747Z,1.95
2023-05-01T21:19:26.343Z,1.75
2023-05-01T21:21:55.346Z,1.80
2023-05-01T21:24:25.834Z,1.80
2023-05-01T21:26:55.185Z,1.85
2023-05-01T21:29:23.467Z,2.40
2023-05-01T21:31:51.736Z,1.65
2023-05-01T21:34:20.362Z,2.10
2023-05-01T21:36:50.126Z,1.70
2023-05-01T21:39:18.349Z,1.60
2023-05-01T21:41:49.458Z,1.58
2023-05-01T21:44:18.096Z,1.73
2023-05-01T21:46:46.414Z,1.90
2023-05-01T21:49:16.966Z,1.70
2023-05-01T21:51:45.384Z,1.55
2023-05-01T21:54:17.631Z,1.40
2023-05-01T21:56:46.407Z,1.70
2023-05-01T21:59:15.540Z,1.60
2023-05-01T22:01:44.727Z,1.60
2023-05-01T22:04:18.132Z,1.70
2023-05-01T22:06:46.779Z,2.00
2023-05-01T22:09:16.489Z,1.98
2023-05-01T22:11:45.095Z,1.60
2023-05-01T22:14:13.503Z,1.75
2023-05-01T22:16:41.883Z,2.03
2023-05-01T22:19:10.389Z,1.77
2023-05-01T22:21:38.889Z,1.70
2023-05-01T22:24:07.710Z,1.80
2023-05-01T22:26:37.537Z,1.70
2023-05-01T22:29:06.243Z,1.67
2023-05-01T22:31:34.724Z,1.70
2023-05-01T22:34:02.977Z,1.60
2023-05-01T22:36:31.522Z,1.80
2023-05-01T22:38:59.738Z,1.70
2023-05-01T22:41:27.997Z,1.65
2023-05-01T22:43:58.126Z,2.00
2023-05-01T22:46:26.390Z,1.85
2023-05-01T22:48:54.603Z,1.80
2023-05-01T22:51:22.912Z,1.63
2023-05-01T22:53:51.189Z,1.77
2023-05-01T22:56:19.637Z,1.70
2023-05-01T22:58:48.416Z,2.10
2023-05-01T23:01:18.182Z,1.88
2023-05-01T23:03:46.630Z,1.95
2023-05-01T23:06:15.015Z,1.88
2023-05-01T23:08:43.449Z,2.17
2023-05-01T23:11:12.323Z,1.88
2023-05-01T23:13:44.576Z,1.58
2023-05-01T23:16:16.482Z,1.75
2023-05-01T23:18:46.359Z,1.80
2023-05-01T23:21:17.747Z,1.60
2023-05-01T23:23:47.396Z,2.28
2023-05-01T23:26:29.408Z,1.90
2023-05-01T23:28:57.823Z,2.10
2023-05-01T23:31:27.492Z,1.95
2023-05-01T23:33:58.040Z,1.90
2023-05-01T23:36:26.267Z,2.10
2023-05-01T23:38:54.499Z,2.33
2023-05-01T23:41:22.844Z,2.05
2023-05-01T23:43:51.119Z,2.08
2023-05-01T23:46:19.391Z,2.10
2023-05-01T23:48:47.733Z,1.70
2023-05-01T23:51:17.366Z,2.00
2023-05-01T23:53:45.841Z,1.85
2023-05-01T23:56:14.009Z,2.10
2023-05-01T23:58:42.313Z,2.30
